sensor_id;sensor_type;location;lat;lon;timestamp;pressure;altitude;pressure_sealevel;temperature;humidity
68179;BME280;69812;42.632;23.440;2024-02-15T00:02:04;95509.06;;;2.03;65.25
68179;BME280;69812;42.632;23.440;2024-02-15T00:04:29;95508.47;;;1.98;65.67
68179;BME280;69812;42.632;23.440;2024-02-15T00:06:59;95494.59;;;1.88;65.41
68179;BME280;69812;42.632;23.440;2024-02-15T00:09:27;95511.47;;;2.06;65.82
68179;BME280;69812;42.632;23.440;2024-02-15T00:11:52;95520.00;;;2.03;65.62
68179;BME280;69812;42.632;23.440;2024-02-15T00:14:19;95510.78;;;2.02;65.32
68179;BME280;69812;42.632;23.440;2024-02-15T00:16:45;95502.72;;;1.94;65.74
68179;BME280;69812;42.632;23.440;2024-02-15T00:19:14;95511.06;;;1.96;65.21
68179;BME280;69812;42.632;23.440;2024-02-15T00:21:48;95515.16;;;1.99;65.68
68179;BME280;69812;42.632;23.440;2024-02-15T00:24:16;95514.50;;;1.95;65.32
68179;BME280;69812;42.632;23.440;2024-02-15T00:26:42;95519.47;;;1.97;65.33
68179;BME280;69812;42.632;23.440;2024-02-15T00:29:08;95522.00;;;1.97;65.54
68179;BME280;69812;42.632;23.440;2024-02-15T00:31:33;95506.28;;;1.90;65.31
68179;BME280;69812;42.632;23.440;2024-02-15T00:34:00;95518.13;;;1.90;65.77
68179;BME280;69812;42.632;23.440;2024-02-15T00:50:22;95519.44;;;2.16;64.65
68179;BME280;69812;42.632;23.440;2024-02-15T00:52:47;95510.72;;;2.04;64.85
68179;BME280;69812;42.632;23.440;2024-02-15T00:55:13;95514.66;;;2.10;64.86
68179;BME280;69812;42.632;23.440;2024-02-15T00:57:38;95527.09;;;2.14;64.53
68179;BME280;69812;42.632;23.440;2024-02-15T01:00:06;95517.34;;;2.07;64.99
68179;BME280;69812;42.632;23.440;2024-02-15T01:02:34;95517.75;;;1.97;64.94
68179;BME280;69812;42.632;23.440;2024-02-15T01:05:01;95511.13;;;1.95;64.73
68179;BME280;69812;42.632;23.440;2024-02-15T01:07:26;95517.25;;;2.08;64.69
68179;BME280;69812;42.632;23.440;2024-02-15T01:09:52;95523.03;;;1.93;65.09
68179;BME280;69812;42.632;23.440;2024-02-15T01:12:18;95518.66;;;1.96;65.26
68179;BME280;69812;42.632;23.440;2024-02-15T01:14:43;95515.84;;;2.02;65.03
68179;BME280;69812;42.632;23.440;2024-02-15T01:17:08;95509.50;;;1.94;64.80
68179;BME280;69812;42.632;23.440;2024-02-15T01:19:34;95522.69;;;2.00;64.79
68179;BME280;69812;42.632;23.440;2024-02-15T01:22:00;95513.38;;;2.01;64.81
68179;BME280;69812;42.632;23.440;2024-02-15T01:24:28;95500.72;;;2.01;64.68
68179;BME280;69812;42.632;23.440;2024-02-15T01:26:53;95508.53;;;1.96;65.30
68179;BME280;69812;42.632;23.440;2024-02-15T01:29:19;95507.41;;;1.84;65.82
68179;BME280;69812;42.632;23.440;2024-02-15T01:31:45;95498.97;;;1.84;65.03
68179;BME280;69812;42.632;23.440;2024-02-15T01:34:11;95495.03;;;1.78;65.88
68179;BME280;69812;42.632;23.440;2024-02-15T01:36:36;95504.72;;;1.88;65.29
68179;BME280;69812;42.632;23.440;2024-02-15T01:39:01;95516.63;;;1.85;65.44
68179;BME280;69812;42.632;23.440;2024-02-15T01:41:27;95504.41;;;1.76;65.32
68179;BME280;69812;42.632;23.440;2024-02-15T01:43:55;95519.91;;;1.88;65.33
68179;BME280;69812;42.632;23.440;2024-02-15T01:46:25;95518.47;;;1.82;65.00
68179;BME280;69812;42.632;23.440;2024-02-15T01:48:51;95513.63;;;1.77;65.25
68179;BME280;69812;42.632;23.440;2024-02-15T01:51:16;95504.94;;;1.83;65.61
68179;BME280;69812;42.632;23.440;2024-02-15T01:53:43;95505.38;;;1.74;65.60
68179;BME280;69812;42.632;23.440;2024-02-15T01:56:12;95506.19;;;1.74;65.25
68179;BME280;69812;42.632;23.440;2024-02-15T01:58:39;95520.25;;;1.80;65.55
68179;BME280;69812;42.632;23.440;2024-02-15T02:01:06;95516.16;;;1.77;65.60
68179;BME280;69812;42.632;23.440;2024-02-15T02:03:31;95503.59;;;1.76;64.91
68179;BME280;69812;42.632;23.440;2024-02-15T02:06:00;95516.16;;;1.77;65.33
68179;BME280;69812;42.632;23.440;2024-02-15T02:08:25;95497.78;;;1.74;65.12
68179;BME280;69812;42.632;23.440;2024-02-15T02:10:52;95513.78;;;1.74;65.62
68179;BME280;69812;42.632;23.440;2024-02-15T02:13:17;95499.03;;;1.65;65.03
68179;BME280;69812;42.632;23.440;2024-02-15T02:15:44;95520.34;;;1.78;65.75
68179;BME280;69812;42.632;23.440;2024-02-15T02:18:09;95511.38;;;1.71;65.58
68179;BME280;69812;42.632;23.440;2024-02-15T02:20:36;95512.06;;;1.75;65.33
68179;BME280;69812;42.632;23.440;2024-02-15T02:23:13;95529.22;;;1.87;65.48
68179;BME280;69812;42.632;23.440;2024-02-15T02:25:41;95512.88;;;1.75;65.44
68179;BME280;69812;42.632;23.440;2024-02-15T02:28:10;95537.63;;;1.69;65.51
68179;BME280;69812;42.632;23.440;2024-02-15T02:30:35;95541.13;;;1.66;65.98
68179;BME280;69812;42.632;23.440;2024-02-15T02:33:04;95542.38;;;1.76;65.49
68179;BME280;69812;42.632;23.440;2024-02-15T02:35:32;95525.53;;;1.75;65.40
68179;BME280;69812;42.632;23.440;2024-02-15T02:37:58;95545.16;;;1.89;65.26
68179;BME280;69812;42.632;23.440;2024-02-15T02:40:23;95539.09;;;1.74;65.60
68179;BME280;69812;42.632;23.440;2024-02-15T02:42:53;95543.72;;;1.64;65.59
68179;BME280;69812;42.632;23.440;2024-02-15T02:45:22;95536.28;;;1.61;66.22
68179;BME280;69812;42.632;23.440;2024-02-15T02:47:51;95547.28;;;1.79;65.66
68179;BME280;69812;42.632;23.440;2024-02-15T02:50:17;95549.19;;;1.74;65.73
68179;BME280;69812;42.632;23.440;2024-02-15T02:52:43;95535.78;;;1.72;65.32
68179;BME280;69812;42.632;23.440;2024-02-15T02:55:09;95501.69;;;1.62;65.26
68179;BME280;69812;42.632;23.440;2024-02-15T02:57:35;95532.03;;;1.62;65.87
68179;BME280;69812;42.632;23.440;2024-02-15T03:00:07;95539.19;;;1.71;65.39
68179;BME280;69812;42.632;23.440;2024-02-15T03:02:41;95540.03;;;1.72;65.77
68179;BME280;69812;42.632;23.440;2024-02-15T03:05:07;95549.53;;;1.67;65.56
68179;BME280;69812;42.632;23.440;2024-02-15T03:07:34;95547.91;;;1.66;66.02
68179;BME280;69812;42.632;23.440;2024-02-15T03:10:01;95531.97;;;1.63;65.66
68179;BME280;69812;42.632;23.440;2024-02-15T03:12:26;95531.56;;;1.54;65.87
68179;BME280;69812;42.632;23.440;2024-02-15T03:14:52;95537.84;;;1.64;66.09
68179;BME280;69812;42.632;23.440;2024-02-15T03:17:17;95544.56;;;1.65;65.75
68179;BME280;69812;42.632;23.440;2024-02-15T03:19:43;95547.38;;;1.59;66.26
68179;BME280;69812;42.632;23.440;2024-02-15T03:22:10;95554.06;;;1.60;66.65
68179;BME280;69812;42.632;23.440;2024-02-15T03:24:38;95534.84;;;1.56;66.49
68179;BME280;69812;42.632;23.440;2024-02-15T03:27:05;95554.19;;;1.57;66.27
68179;BME280;69812;42.632;23.440;2024-02-15T03:29:30;95553.38;;;1.56;66.08
68179;BME280;69812;42.632;23.440;2024-02-15T03:31:59;95549.41;;;1.51;66.28
68179;BME280;69812;42.632;23.440;2024-02-15T03:34:24;95539.38;;;1.30;66.62
68179;BME280;69812;42.632;23.440;2024-02-15T03:36:50;95558.56;;;1.34;67.15
68179;BME280;69812;42.632;23.440;2024-02-15T03:39:19;95555.09;;;1.37;66.78
68179;BME280;69812;42.632;23.440;2024-02-15T03:41:48;95537.38;;;1.37;66.82
68179;BME280;69812;42.632;23.440;2024-02-15T03:44:13;95541.75;;;1.33;67.45
68179;BME280;69812;42.632;23.440;2024-02-15T03:46:40;95531.63;;;1.33;66.86
68179;BME280;69812;42.632;23.440;2024-02-15T03:49:05;95546.06;;;1.31;67.10
68179;BME280;69812;42.632;23.440;2024-02-15T03:51:33;95533.25;;;1.15;67.55
68179;BME280;69812;42.632;23.440;2024-02-15T03:53:59;95544.75;;;1.22;67.91
68179;BME280;69812;42.632;23.440;2024-02-15T03:56:24;95556.44;;;1.25;67.72
68179;BME280;69812;42.632;23.440;2024-02-15T03:58:50;95553.63;;;1.31;67.52
68179;BME280;69812;42.632;23.440;2024-02-15T04:01:16;95547.56;;;1.35;67.28
68179;BME280;69812;42.632;23.440;2024-02-15T04:03:43;95549.94;;;1.38;67.28
68179;BME280;69812;42.632;23.440;2024-02-15T04:06:09;95557.94;;;1.29;67.01
68179;BME280;69812;42.632;23.440;2024-02-15T04:08:36;95539.53;;;1.26;67.50
68179;BME280;69812;42.632;23.440;2024-02-15T04:11:05;95553.38;;;1.37;67.36
68179;BME280;69812;42.632;23.440;2024-02-15T04:13:33;95541.00;;;1.31;67.54
68179;BME280;69812;42.632;23.440;2024-02-15T04:16:01;95543.56;;;1.11;67.32
68179;BME280;69812;42.632;23.440;2024-02-15T04:18:28;95537.69;;;1.10;67.72
68179;BME280;69812;42.632;23.440;2024-02-15T04:20:57;95561.13;;;1.14;67.80
68179;BME280;69812;42.632;23.440;2024-02-15T04:23:29;95555.56;;;1.06;68.00
68179;BME280;69812;42.632;23.440;2024-02-15T04:25:55;95560.69;;;1.04;68.16
68179;BME280;69812;42.632;23.440;2024-02-15T04:28:20;95562.28;;;1.07;68.00
68179;BME280;69812;42.632;23.440;2024-02-15T04:30:48;95562.91;;;1.12;67.97
68179;BME280;69812;42.632;23.440;2024-02-15T04:33:14;95564.66;;;1.10;68.36
68179;BME280;69812;42.632;23.440;2024-02-15T04:35:41;95559.75;;;1.07;68.06
68179;BME280;69812;42.632;23.440;2024-02-15T04:38:14;95567.34;;;1.07;68.30
68179;BME280;69812;42.632;23.440;2024-02-15T04:40:40;95568.91;;;1.09;68.34
68179;BME280;69812;42.632;23.440;2024-02-15T04:43:05;95565.13;;;1.19;67.91
68179;BME280;69812;42.632;23.440;2024-02-15T04:45:31;95562.09;;;1.11;67.84
68179;BME280;69812;42.632;23.440;2024-02-15T04:47:57;95549.34;;;1.13;67.78
68179;BME280;69812;42.632;23.440;2024-02-15T04:50:27;95559.78;;;1.26;67.34
68179;BME280;69812;42.632;23.440;2024-02-15T04:52:52;95538.38;;;1.14;67.32
68179;BME280;69812;42.632;23.440;2024-02-15T04:55:20;95561.53;;;1.05;68.30
68179;BME280;69812;42.632;23.440;2024-02-15T04:57:48;95571.25;;;1.14;67.90
68179;BME280;69812;42.632;23.440;2024-02-15T05:00:15;95579.09;;;1.08;67.97
68179;BME280;69812;42.632;23.440;2024-02-15T05:02:40;95578.88;;;1.12;68.17
68179;BME280;69812;42.632;23.440;2024-02-15T05:05:10;95579.91;;;1.08;67.97
68179;BME280;69812;42.632;23.440;2024-02-15T05:07:35;95585.84;;;1.07;68.22
68179;BME280;69812;42.632;23.440;2024-02-15T05:10:05;95590.91;;;1.07;68.38
68179;BME280;69812;42.632;23.440;2024-02-15T05:12:32;95600.25;;;1.05;68.29
68179;BME280;69812;42.632;23.440;2024-02-15T05:14:59;95588.81;;;0.96;68.60
68179;BME280;69812;42.632;23.440;2024-02-15T05:17:24;95597.69;;;1.07;68.63
68179;BME280;69812;42.632;23.440;2024-02-15T05:19:56;95591.34;;;0.96;68.62
68179;BME280;69812;42.632;23.440;2024-02-15T05:22:25;95605.38;;;1.03;68.29
68179;BME280;69812;42.632;23.440;2024-02-15T05:24:57;95607.38;;;0.95;68.75
68179;BME280;69812;42.632;23.440;2024-02-15T05:27:31;95595.78;;;0.91;68.54
68179;BME280;69812;42.632;23.440;2024-02-15T05:29:56;95606.78;;;0.90;68.96
68179;BME280;69812;42.632;23.440;2024-02-15T05:32:22;95612.63;;;0.91;69.08
68179;BME280;69812;42.632;23.440;2024-02-15T05:34:47;95594.84;;;0.94;69.00
68179;BME280;69812;42.632;23.440;2024-02-15T05:37:14;95607.59;;;0.91;69.18
68179;BME280;69812;42.632;23.440;2024-02-15T05:39:41;95611.75;;;0.92;68.84
68179;BME280;69812;42.632;23.440;2024-02-15T05:42:06;95626.13;;;0.91;69.05
68179;BME280;69812;42.632;23.440;2024-02-15T05:44:33;95620.53;;;1.03;68.78
68179;BME280;69812;42.632;23.440;2024-02-15T05:47:00;95619.53;;;0.87;68.97
68179;BME280;69812;42.632;23.440;2024-02-15T05:49:27;95626.94;;;0.92;68.58
68179;BME280;69812;42.632;23.440;2024-02-15T05:51:53;95604.38;;;0.87;68.71
68179;BME280;69812;42.632;23.440;2024-02-15T05:54:21;95614.81;;;1.00;69.04
68179;BME280;69812;42.632;23.440;2024-02-15T05:56:50;95627.50;;;0.98;68.56
68179;BME280;69812;42.632;23.440;2024-02-15T05:59:18;95645.56;;;1.10;68.78
68179;BME280;69812;42.632;23.440;2024-02-15T06:01:45;95638.44;;;0.99;68.20
68179;BME280;69812;42.632;23.440;2024-02-15T06:04:18;95641.72;;;1.01;68.30
68179;BME280;69812;42.632;23.440;2024-02-15T06:06:43;95642.16;;;1.11;68.16
68179;BME280;69812;42.632;23.440;2024-02-15T06:09:13;95655.06;;;1.05;67.84
68179;BME280;69812;42.632;23.440;2024-02-15T06:11:39;95646.91;;;0.98;68.13
68179;BME280;69812;42.632;23.440;2024-02-15T06:14:04;95642.09;;;0.92;68.88
68179;BME280;69812;42.632;23.440;2024-02-15T06:16:31;95644.88;;;1.06;68.44
68179;BME280;69812;42.632;23.440;2024-02-15T06:18:56;95654.47;;;1.18;67.75
68179;BME280;69812;42.632;23.440;2024-02-15T06:21:22;95661.31;;;1.16;67.89
68179;BME280;69812;42.632;23.440;2024-02-15T06:23:50;95654.91;;;1.08;68.73
68179;BME280;69812;42.632;23.440;2024-02-15T06:26:16;95652.97;;;1.14;68.10
68179;BME280;69812;42.632;23.440;2024-02-15T06:28:44;95667.50;;;1.30;67.51
68179;BME280;69812;42.632;23.440;2024-02-15T06:31:28;95678.38;;;1.32;67.13
68179;BME280;69812;42.632;23.440;2024-02-15T06:34:12;95668.59;;;1.24;67.34
68179;BME280;69812;42.632;23.440;2024-02-15T06:36:56;95694.00;;;1.41;67.73
68179;BME280;69812;42.632;23.440;2024-02-15T06:39:40;95668.91;;;1.37;67.15
68179;BME280;69812;42.632;23.440;2024-02-15T06:42:10;95689.66;;;1.64;66.51
68179;BME280;69812;42.632;23.440;2024-02-15T06:44:37;95683.53;;;1.70;66.54
68179;BME280;69812;42.632;23.440;2024-02-15T06:47:09;95686.34;;;1.82;66.11
68179;BME280;69812;42.632;23.440;2024-02-15T06:49:41;95680.28;;;1.87;65.45
68179;BME280;69812;42.632;23.440;2024-02-15T06:52:10;95682.09;;;1.83;65.80
68179;BME280;69812;42.632;23.440;2024-02-15T06:54:39;95685.81;;;1.76;65.87
68179;BME280;69812;42.632;23.440;2024-02-15T06:57:04;95678.16;;;1.57;66.28
68179;BME280;69812;42.632;23.440;2024-02-15T06:59:31;95672.59;;;1.49;66.20
68179;BME280;69812;42.632;23.440;2024-02-15T07:02:00;95686.00;;;1.51;67.13
68179;BME280;69812;42.632;23.440;2024-02-15T07:04:30;95673.09;;;1.57;66.74
68179;BME280;69812;42.632;23.440;2024-02-15T07:06:57;95687.09;;;1.45;66.78
68179;BME280;69812;42.632;23.440;2024-02-15T07:09:25;95668.13;;;1.14;67.99
68179;BME280;69812;42.632;23.440;2024-02-15T07:11:53;95681.22;;;1.24;67.88
68179;BME280;69812;42.632;23.440;2024-02-15T07:14:19;95701.91;;;1.73;66.45
68179;BME280;69812;42.632;23.440;2024-02-15T07:16:46;95685.81;;;1.76;65.55
68179;BME280;69812;42.632;23.440;2024-02-15T07:19:14;95693.91;;;2.22;65.54
68179;BME280;69812;42.632;23.440;2024-02-15T07:21:40;95683.81;;;2.58;63.73
68179;BME280;69812;42.632;23.440;2024-02-15T07:24:06;95695.19;;;3.38;61.53
68179;BME280;69812;42.632;23.440;2024-02-15T07:26:31;95667.53;;;4.32;58.45
68179;BME280;69812;42.632;23.440;2024-02-15T07:29:00;95693.56;;;5.44;55.07
68179;BME280;69812;42.632;23.440;2024-02-15T07:31:28;95668.97;;;5.14;54.82
68179;BME280;69812;42.632;23.440;2024-02-15T07:33:54;95680.78;;;5.88;53.61
68179;BME280;69812;42.632;23.440;2024-02-15T07:36:21;95681.75;;;5.57;52.97
68179;BME280;69812;42.632;23.440;2024-02-15T07:38:53;95649.56;;;4.97;53.72
68179;BME280;69812;42.632;23.440;2024-02-15T07:41:20;95662.78;;;4.88;54.84
68179;BME280;69812;42.632;23.440;2024-02-15T07:43:50;95671.69;;;4.65;55.03
68179;BME280;69812;42.632;23.440;2024-02-15T07:46:16;95668.09;;;4.53;55.52
68179;BME280;69812;42.632;23.440;2024-02-15T07:48:43;95671.63;;;4.35;55.96
68179;BME280;69812;42.632;23.440;2024-02-15T07:51:23;95663.34;;;4.15;57.38
68179;BME280;69812;42.632;23.440;2024-02-15T07:53:53;95656.09;;;3.91;57.21
68179;BME280;69812;42.632;23.440;2024-02-15T07:56:18;95661.13;;;3.93;57.26
68179;BME280;69812;42.632;23.440;2024-02-15T07:58:48;95670.97;;;4.15;57.49
68179;BME280;69812;42.632;23.440;2024-02-15T08:01:15;95651.63;;;4.13;57.21
68179;BME280;69812;42.632;23.440;2024-02-15T08:03:49;95666.38;;;4.53;56.27
68179;BME280;69812;42.632;23.440;2024-02-15T08:06:17;95671.06;;;4.29;56.32
68179;BME280;69812;42.632;23.440;2024-02-15T08:08:43;95671.44;;;4.38;56.42
68179;BME280;69812;42.632;23.440;2024-02-15T08:11:13;95657.84;;;4.23;57.08
68179;BME280;69812;42.632;23.440;2024-02-15T08:13:50;95662.91;;;4.70;55.90
68179;BME280;69812;42.632;23.440;2024-02-15T08:16:21;95661.94;;;4.73;55.50
68179;BME280;69812;42.632;23.440;2024-02-15T08:18:48;95639.75;;;4.45;56.03
68179;BME280;69812;42.632;23.440;2024-02-15T08:21:17;95652.97;;;4.66;55.76
68179;BME280;69812;42.632;23.440;2024-02-15T08:23:42;95648.25;;;4.44;55.84
68179;BME280;69812;42.632;23.440;2024-02-15T08:26:11;95651.44;;;4.63;54.97
68179;BME280;69812;42.632;23.440;2024-02-15T08:28:36;95658.28;;;4.93;54.30
68179;BME280;69812;42.632;23.440;2024-02-15T08:31:02;95655.66;;;4.79;54.50
68179;BME280;69812;42.632;23.440;2024-02-15T08:33:29;95650.50;;;4.80;54.48
68179;BME280;69812;42.632;23.440;2024-02-15T08:35:55;95653.34;;;4.90;54.64
68179;BME280;69812;42.632;23.440;2024-02-15T08:38:22;95648.84;;;5.09;54.06
68179;BME280;69812;42.632;23.440;2024-02-15T08:40:52;95655.81;;;4.91;53.94
68179;BME280;69812;42.632;23.440;2024-02-15T08:43:19;95638.69;;;4.79;54.82
68179;BME280;69812;42.632;23.440;2024-02-15T08:45:45;95648.13;;;5.07;53.87
68179;BME280;69812;42.632;23.440;2024-02-15T08:48:17;95657.88;;;5.15;53.20
68179;BME280;69812;42.632;23.440;2024-02-15T08:50:43;95647.63;;;4.70;53.96
68179;BME280;69812;42.632;23.440;2024-02-15T08:53:10;95650.16;;;4.86;54.51
68179;BME280;69812;42.632;23.440;2024-02-15T08:55:36;95634.31;;;4.81;54.18
68179;BME280;69812;42.632;23.440;2024-02-15T08:58:02;95649.69;;;4.80;54.35
68179;BME280;69812;42.632;23.440;2024-02-15T09:00:28;95648.38;;;4.72;54.35
68179;BME280;69812;42.632;23.440;2024-02-15T09:02:53;95646.38;;;4.93;55.67
68179;BME280;69812;42.632;23.440;2024-02-15T09:05:19;95647.41;;;4.75;55.42
68179;BME280;69812;42.632;23.440;2024-02-15T09:07:47;95639.84;;;4.73;55.77
68179;BME280;69812;42.632;23.440;2024-02-15T09:10:14;95644.00;;;5.21;54.57
68179;BME280;69812;42.632;23.440;2024-02-15T09:12:42;95637.47;;;5.01;54.86
68179;BME280;69812;42.632;23.440;2024-02-15T09:15:12;95645.59;;;4.61;54.50
68179;BME280;69812;42.632;23.440;2024-02-15T09:17:39;95628.16;;;4.55;56.59
68179;BME280;69812;42.632;23.440;2024-02-15T09:20:08;95640.66;;;4.28;55.89
68179;BME280;69812;42.632;23.440;2024-02-15T09:22:34;95634.41;;;4.49;55.94
68179;BME280;69812;42.632;23.440;2024-02-15T09:25:02;95643.03;;;4.47;55.72
68179;BME280;69812;42.632;23.440;2024-02-15T09:27:29;95620.16;;;4.15;56.06
68179;BME280;69812;42.632;23.440;2024-02-15T09:29:55;95634.47;;;4.16;56.08
68179;BME280;69812;42.632;23.440;2024-02-15T09:32:21;95641.44;;;4.44;57.37
68179;BME280;69812;42.632;23.440;2024-02-15T09:34:47;95639.00;;;4.89;55.65
68179;BME280;69812;42.632;23.440;2024-02-15T09:37:13;95634.31;;;5.11;54.92
68179;BME280;69812;42.632;23.440;2024-02-15T09:39:39;95639.19;;;5.30;53.82
68179;BME280;69812;42.632;23.440;2024-02-15T09:42:05;95631.47;;;5.61;54.21
68179;BME280;69812;42.632;23.440;2024-02-15T09:44:30;95632.75;;;5.68;53.30
68179;BME280;69812;42.632;23.440;2024-02-15T09:47:04;95639.56;;;5.53;52.25
68179;BME280;69812;42.632;23.440;2024-02-15T09:49:36;95638.22;;;5.47;53.21
68179;BME280;69812;42.632;23.440;2024-02-15T09:52:07;95626.75;;;5.69;52.33
68179;BME280;69812;42.632;23.440;2024-02-15T09:54:39;95616.19;;;5.89;52.33
68179;BME280;69812;42.632;23.440;2024-02-15T09:57:06;95628.84;;;5.62;53.10
68179;BME280;69812;42.632;23.440;2024-02-15T09:59:33;95625.44;;;5.33;53.91
68179;BME280;69812;42.632;23.440;2024-02-15T10:02:01;95611.47;;;5.26;54.03
68179;BME280;69812;42.632;23.440;2024-02-15T10:04:29;95614.47;;;5.47;53.55
68179;BME280;69812;42.632;23.440;2024-02-15T10:06:55;95621.09;;;5.35;53.71
68179;BME280;69812;42.632;23.440;2024-02-15T10:09:40;95614.97;;;5.09;53.04
68179;BME280;69812;42.632;23.440;2024-02-15T10:12:08;95597.16;;;4.94;53.27
68179;BME280;69812;42.632;23.440;2024-02-15T10:14:34;95589.06;;;5.02;53.83
68179;BME280;69812;42.632;23.440;2024-02-15T10:17:07;95598.69;;;5.11;52.89
68179;BME280;69812;42.632;23.440;2024-02-15T10:19:35;95602.56;;;5.47;54.31
68179;BME280;69812;42.632;23.440;2024-02-15T10:22:08;95586.19;;;5.51;52.80
68179;BME280;69812;42.632;23.440;2024-02-15T10:24:34;95585.72;;;5.73;53.41
68179;BME280;69812;42.632;23.440;2024-02-15T10:27:03;95582.00;;;5.65;52.67
68179;BME280;69812;42.632;23.440;2024-02-15T10:29:33;95572.47;;;5.40;53.17
68179;BME280;69812;42.632;23.440;2024-02-15T10:32:01;95584.38;;;5.96;51.79
68179;BME280;69812;42.632;23.440;2024-02-15T10:34:28;95566.88;;;5.90;51.32
68179;BME280;69812;42.632;23.440;2024-02-15T10:36:54;95562.69;;;6.31;51.25
68179;BME280;69812;42.632;23.440;2024-02-15T10:39:22;95563.72;;;6.68;49.73
68179;BME280;69812;42.632;23.440;2024-02-15T10:41:53;95562.50;;;6.74;49.16
68179;BME280;69812;42.632;23.440;2024-02-15T10:44:23;95563.75;;;6.81;49.44
68179;BME280;69812;42.632;23.440;2024-02-15T10:46:52;95550.41;;;6.90;48.54
68179;BME280;69812;42.632;23.440;2024-02-15T10:51:44;95544.78;;;7.11;48.73
68179;BME280;69812;42.632;23.440;2024-02-15T10:54:12;95549.78;;;7.25;48.62
68179;BME280;69812;42.632;23.440;2024-02-15T10:56:43;95542.66;;;6.52;50.63
68179;BME280;69812;42.632;23.440;2024-02-15T10:59:18;95538.66;;;6.08;49.84
68179;BME280;69812;42.632;23.440;2024-02-15T11:01:46;95549.72;;;6.21;51.04
68179;BME280;69812;42.632;23.440;2024-02-15T11:04:20;95547.84;;;6.10;50.57
68179;BME280;69812;42.632;23.440;2024-02-15T11:06:47;95542.13;;;6.34;52.04
68179;BME280;69812;42.632;23.440;2024-02-15T11:09:18;95515.88;;;6.85;50.23
68179;BME280;69812;42.632;23.440;2024-02-15T11:11:45;95537.91;;;6.60;50.52
68179;BME280;69812;42.632;23.440;2024-02-15T11:14:27;95538.94;;;6.30;50.37
68179;BME280;69812;42.632;23.440;2024-02-15T11:16:59;95535.19;;;7.02;50.07
68179;BME280;69812;42.632;23.440;2024-02-15T11:19:44;95528.03;;;7.07;50.01
68179;BME280;69812;42.632;23.440;2024-02-15T11:22:16;95533.25;;;6.92;49.44
68179;BME280;69812;42.632;23.440;2024-02-15T11:24:47;95519.75;;;6.77;50.83
68179;BME280;69812;42.632;23.440;2024-02-15T11:27:24;95526.41;;;7.06;51.03
68179;BME280;69812;42.632;23.440;2024-02-15T11:29:59;95531.28;;;6.96;49.44
68179;BME280;69812;42.632;23.440;2024-02-15T11:32:49;95533.56;;;7.01;49.60
68179;BME280;69812;42.632;23.440;2024-02-15T11:35:19;95529.47;;;7.11;49.79
68179;BME280;69812;42.632;23.440;2024-02-15T11:37:49;95522.94;;;7.19;49.57
68179;BME280;69812;42.632;23.440;2024-02-15T11:46:08;95519.13;;;6.74;49.67
68179;BME280;69812;42.632;23.440;2024-02-15T11:48:36;95508.22;;;7.10;48.78
68179;BME280;69812;42.632;23.440;2024-02-15T11:51:05;95512.50;;;7.35;48.95
68179;BME280;69812;42.632;23.440;2024-02-15T11:53:32;95512.75;;;7.69;48.45
68179;BME280;69812;42.632;23.440;2024-02-15T11:56:01;95497.13;;;7.11;49.94
68179;BME280;69812;42.632;23.440;2024-02-15T11:58:27;95507.69;;;7.44;49.35
68179;BME280;69812;42.632;23.440;2024-02-15T12:01:08;95504.53;;;7.40;48.59
68179;BME280;69812;42.632;23.440;2024-02-15T12:03:56;95493.50;;;7.39;48.95
68179;BME280;69812;42.632;23.440;2024-02-15T12:06:40;95498.50;;;7.78;47.57
68179;BME280;69812;42.632;23.440;2024-02-15T12:09:26;95489.28;;;7.51;47.68
68179;BME280;69812;42.632;23.440;2024-02-15T12:12:10;95502.91;;;7.76;48.15
68179;BME280;69812;42.632;23.440;2024-02-15T12:15:01;95508.44;;;8.55;46.49
68179;BME280;69812;42.632;23.440;2024-02-15T12:17:45;95501.84;;;8.63;45.90
68179;BME280;69812;42.632;23.440;2024-02-15T12:20:29;95479.53;;;9.11;44.99
68179;BME280;69812;42.632;23.440;2024-02-15T12:22:57;95503.56;;;8.39;45.47
68179;BME280;69812;42.632;23.440;2024-02-15T12:25:26;95501.41;;;8.46;45.71
68179;BME280;69812;42.632;23.440;2024-02-15T12:27:56;95489.06;;;8.75;45.19
68179;BME280;69812;42.632;23.440;2024-02-15T12:30:22;95487.75;;;8.69;45.70
68179;BME280;69812;42.632;23.440;2024-02-15T12:32:48;95483.88;;;9.33;44.21
68179;BME280;69812;42.632;23.440;2024-02-15T12:35:16;95487.72;;;9.27;44.18
68179;BME280;69812;42.632;23.440;2024-02-15T12:40:16;95460.47;;;9.37;44.46
68179;BME280;69812;42.632;23.440;2024-02-15T12:42:45;95475.66;;;8.71;44.80
68179;BME280;69812;42.632;23.440;2024-02-15T12:45:20;95469.56;;;8.50;45.84
68179;BME280;69812;42.632;23.440;2024-02-15T12:47:53;95482.03;;;8.30;46.58
68179;BME280;69812;42.632;23.440;2024-02-15T12:50:22;95477.94;;;8.52;46.53
68179;BME280;69812;42.632;23.440;2024-02-15T12:52:49;95473.97;;;8.94;46.36
68179;BME280;69812;42.632;23.440;2024-02-15T12:55:22;95470.81;;;9.02;46.51
68179;BME280;69812;42.632;23.440;2024-02-15T12:57:51;95477.06;;;8.75;46.42
68179;BME280;69812;42.632;23.440;2024-02-15T13:00:25;95479.09;;;8.48;46.00
68179;BME280;69812;42.632;23.440;2024-02-15T13:02:56;95473.53;;;8.54;46.12
68179;BME280;69812;42.632;23.440;2024-02-15T13:05:22;95473.91;;;8.36;45.82
68179;BME280;69812;42.632;23.440;2024-02-15T13:07:55;95464.03;;;8.67;45.61
68179;BME280;69812;42.632;23.440;2024-02-15T13:10:22;95451.63;;;9.08;45.25
68179;BME280;69812;42.632;23.440;2024-02-15T13:12:51;95472.44;;;9.25;45.35
68179;BME280;69812;42.632;23.440;2024-02-15T13:15:17;95459.41;;;8.72;45.84
68179;BME280;69812;42.632;23.440;2024-02-15T13:17:49;95477.56;;;8.92;46.27
68179;BME280;69812;42.632;23.440;2024-02-15T13:20:18;95468.13;;;8.92;45.88
68179;BME280;69812;42.632;23.440;2024-02-15T13:22:47;95467.47;;;9.35;44.48
68179;BME280;69812;42.632;23.440;2024-02-15T13:25:16;95477.34;;;9.51;45.39
68179;BME280;69812;42.632;23.440;2024-02-15T13:27:42;95471.53;;;9.27;44.44
68179;BME280;69812;42.632;23.440;2024-02-15T13:30:11;95469.88;;;9.59;43.68
68179;BME280;69812;42.632;23.440;2024-02-15T13:32:40;95463.72;;;9.28;44.09